Time;durP1;ratioP1;P1;durP2;ratioP2;P2;SDS_P1;SDS_P2;PMS_P1;PMS_P2;Temp;Humidity;BMP_temperature;BMP_pressure;BME280_temperature;BME280_humidity;BME280_pressure;Samples;Min_cycle;Max_cycle;Signal;HPM_P1;HPM_P2
2022/04/13 00:01:13;;;;;;;56.77;25.93;;;;;;;6.50;65.25;95096.47;5036479;28;20184;-87
2022/04/13 00:03:38;;;;;;;44.47;23.37;;;;;;;6.17;64.96;95050.75;5054634;28;20179;-87
2022/04/13 00:06:04;;;;;;;40.43;19.60;;;;;;;6.14;65.28;95046.69;5054735;28;20234;-88
2022/04/13 00:08:31;;;;;;;34.60;17.80;;;;;;;6.43;65.15;95108.66;5054520;28;20225;-88
2022/04/13 00:10:56;;;;;;;41.57;18.50;;;;;;;6.05;65.64;95048.56;5036338;28;20171;-88
2022/04/13 00:13:21;;;;;;;26.73;14.37;;;;;;;5.97;65.64;95038.19;5054411;28;20639;-88
2022/04/13 00:15:47;;;;;;;28.00;15.07;;;;;;;6.07;65.79;95062.28;5036232;28;20184;-88
2022/04/13 00:18:12;;;;;;;30.67;15.07;;;;;;;6.28;66.16;95105.22;5035670;28;20272;-88
2022/04/13 00:20:38;;;;;;;25.13;13.43;;;;;;;5.90;65.69;95045.13;5052512;28;20592;-88
2022/04/13 00:23:04;;;;;;;25.67;11.93;;;;;;;5.91;65.96;95045.94;5053376;28;20163;-88
2022/04/13 00:25:30;;;;;;;20.30;10.73;;;;;;;5.98;65.91;95067.75;5053495;28;20175;-88
2022/04/13 00:27:55;;;;;;;25.27;10.77;;;;;;;6.23;66.03;95113.56;5053747;28;20167;-88
2022/04/13 00:30:21;;;;;;;21.33;10.03;;;;;;;5.86;65.89;95048.25;5035884;28;20159;-89
2022/04/13 00:32:47;;;;;;;19.43;9.03;;;;;;;6.22;65.82;95105.94;5035866;28;20175;-88
2022/04/13 00:35:13;;;;;;;21.27;10.40;;;;;;;5.97;65.74;95059.09;5035338;28;20257;-89
2022/04/13 00:37:38;;;;;;;20.07;9.43;;;;;;;6.27;65.84;95109.63;5035690;28;20722;-88
2022/04/13 00:40:08;;;;;;;14.73;7.27;;;;;;;6.12;65.82;95081.84;5035376;28;20713;-89
2022/04/13 00:42:33;;;;;;;14.73;7.37;;;;;;;5.81;65.23;95037.50;5052764;28;20316;-89
2022/04/13 00:44:58;;;;;;;14.80;8.03;;;;;;;5.75;65.23;95030.38;5053451;28;20587;-90
2022/04/13 00:47:25;;;;;;;16.90;8.10;;;;;;;5.70;65.53;95030.94;5035812;28;20193;-89
2022/04/13 00:49:50;;;;;;;12.97;6.87;;;;;;;5.73;64.95;95037.59;5054377;28;20159;-89
2022/04/13 00:52:19;;;;;;;13.37;6.90;;;;;;;5.97;65.29;95082.63;5059351;28;20662;-89
2022/04/13 00:54:48;;;;;;;12.00;6.90;;;;;;;5.59;65.06;95024.31;5063384;28;20175;-88
2022/04/13 00:57:16;;;;;;;12.63;6.07;;;;;;;6.09;65.40;95111.75;5065074;28;20155;-89
2022/04/13 00:59:44;;;;;;;14.43;6.87;;;;;;;5.57;65.21;95023.69;5053864;28;20191;-89
2022/04/13 01:02:12;;;;;;;11.60;6.30;;;;;;;5.92;64.83;95082.34;5053020;28;20257;-89
2022/04/13 01:04:38;;;;;;;10.33;6.30;;;;;;;6.02;64.62;95101.19;5035375;28;20257;-89
2022/04/13 01:07:08;;;;;;;10.87;6.13;;;;;;;6.09;64.39;95122.22;5053142;28;20720;-90
2022/04/13 01:09:35;;;;;;;11.93;6.50;;;;;;;6.08;64.19;95123.19;5035269;28;20230;-89
2022/04/13 01:12:01;;;;;;;10.73;6.40;;;;;;;5.74;64.12;95076.59;5034452;28;20656;-89
2022/04/13 01:14:26;;;;;;;11.20;6.27;;;;;;;5.61;64.26;95065.94;5034672;28;20218;-89
2022/04/13 01:16:52;;;;;;;13.33;6.13;;;;;;;5.34;64.36;95025.50;5052282;28;20182;-90
2022/04/13 01:19:18;;;;;;;11.63;6.53;;;;;;;5.49;64.63;95055.06;5035498;28;20738;-90
2022/04/13 01:21:52;;;;;;;10.33;5.67;;;;;;;5.71;64.78;95089.19;5034793;28;20224;-90
2022/04/13 01:24:19;;;;;;;10.27;5.93;;;;;;;5.89;64.85;95116.66;5034786;28;20263;-89
2022/04/13 01:26:45;;;;;;;13.17;6.57;;;;;;;5.57;64.83;95064.63;5035191;28;20277;-90
2022/04/13 01:29:11;;;;;;;12.17;6.67;;;;;;;5.88;65.14;95122.06;5035026;28;20179;-90
2022/04/13 01:31:37;;;;;;;12.03;5.70;;;;;;;5.86;64.74;95124.81;5034782;28;20227;-90
2022/04/13 01:34:03;;;;;;;16.73;6.60;;;;;;;5.60;65.13;95079.97;5052377;28;20542;-88
2022/04/13 01:36:29;;;;;;;15.60;7.30;;;;;;;5.60;65.14;95093.03;5034845;28;20726;-90
2022/04/13 01:38:54;;;;;;;20.60;8.30;;;;;;;5.44;65.53;95065.25;5052756;28;20183;-90
2022/04/13 01:41:20;;;;;;;14.50;6.87;;;;;;;5.34;65.80;95054.22;5035236;28;20178;-91
2022/04/13 01:43:45;;;;;;;15.30;8.20;;;;;;;5.40;66.78;95058.72;5029457;28;20262;-90
2022/04/13 01:46:11;;;;;;;40.97;18.93;;;;;;;5.42;65.95;95067.22;5034656;28;20179;-88
2022/04/13 01:48:36;;;;;;;20.83;10.83;;;;;;;5.50;65.99;95068.94;5052918;28;20175;-89
2022/04/13 01:51:02;;;;;;;18.57;9.90;;;;;;;5.69;66.15;95121.53;5052681;28;20182;-89
2022/04/13 01:53:29;;;;;;;16.90;9.20;;;;;;;5.45;66.83;95097.38;5035226;28;20186;-89
2022/04/13 01:55:55;;;;;;;18.33;10.67;;;;;;;5.54;66.94;95114.59;5035496;28;20171;-89
2022/04/13 01:58:21;;;;;;;14.93;9.07;;;;;;;5.04;67.46;95032.38;5035147;28;20683;-89
2022/04/13 02:00:47;;;;;;;13.43;8.10;;;;;;;5.34;67.39;95095.97;5035124;28;20170;-88
2022/04/13 02:03:13;;;;;;;18.40;9.67;;;;;;;5.03;67.59;95045.59;5052844;28;20591;-88
2022/04/13 02:05:38;;;;;;;20.23;8.43;;;;;;;4.87;67.55;95031.66;5034941;28;20179;-89
2022/04/13 02:08:04;;;;;;;14.90;7.87;;;;;;;5.11;67.92;95069.84;5052298;28;20254;-88
2022/04/13 02:10:29;;;;;;;17.80;8.23;;;;;;;4.98;67.63;95040.91;5052244;28;20611;-88
2022/04/13 02:12:55;;;;;;;22.47;10.83;;;;;;;4.79;68.06;95015.25;5052057;28;20217;-89
2022/04/13 02:15:20;;;;;;;19.00;8.67;;;;;;;4.99;68.27;95066.00;5034129;28;20228;-89
2022/04/13 02:17:46;;;;;;;23.57;10.47;;;;;;;5.03;68.10;95072.47;5034115;28;20230;-88
2022/04/13 02:20:11;;;;;;;23.00;10.80;;;;;;;4.74;68.54;95038.44;5052071;28;20241;-89
2022/04/13 02:22:37;;;;;;;21.13;10.80;;;;;;;4.74;68.78;95038.44;5052205;28;20167;-90
2022/04/13 02:25:04;;;;;;;23.67;11.53;;;;;;;4.79;68.78;95056.97;5052222;28;20691;-88
2022/04/13 02:27:29;;;;;;;22.90;11.40;;;;;;;4.80;69.11;95053.38;5052395;28;20186;-89
2022/04/13 02:29:55;;;;;;;20.60;10.63;;;;;;;4.65;68.85;95031.63;5034275;28;20898;-88
2022/04/13 02:32:20;;;;;;;21.50;9.80;;;;;;;4.57;68.35;95014.22;5052029;28;20171;-89
2022/04/13 02:34:48;;;;;;;20.70;10.13;;;;;;;4.71;68.93;95050.00;5034280;28;20167;-90
2022/04/13 02:37:15;;;;;;;18.10;9.87;;;;;;;5.08;69.30;95105.91;5034423;28;20175;-89
2022/04/13 02:39:40;;;;;;;16.00;9.47;;;;;;;4.60;69.07;95031.28;5052525;28;20560;-90
2022/04/13 02:42:06;;;;;;;19.00;10.10;;;;;;;4.65;69.35;95031.63;5034924;28;20167;-90
2022/04/13 02:44:31;;;;;;;16.73;10.20;;;;;;;4.70;69.55;95050.97;5053387;28;20263;-90
2022/04/13 02:46:57;;;;;;;18.67;10.13;;;;;;;4.44;69.47;95012.16;5037024;28;20178;-89
2022/04/13 02:49:22;;;;;;;23.03;12.43;;;;;;;4.62;69.41;95031.94;5037515;28;20724;-90
2022/04/13 02:51:47;;;;;;;26.10;12.93;;;;;;;4.41;69.62;94998.66;5037195;28;20171;-89
2022/04/13 02:54:13;;;;;;;31.77;13.67;;;;;;;4.50;69.14;95021.06;5037315;28;20175;-89
2022/04/13 02:56:38;;;;;;;28.33;13.43;;;;;;;4.45;69.64;95010.34;5037236;28;20190;-89
2022/04/13 02:59:05;;;;;;;25.03;13.43;;;;;;;4.57;69.47;95031.66;5056138;28;20192;-88
2022/04/13 03:01:30;;;;;;;30.70;14.10;;;;;;;4.56;69.45;95033.44;5056041;28;20166;-89
2022/04/13 03:03:56;;;;;;;28.60;14.70;;;;;;;4.64;69.24;95046.44;5038275;28;20175;-89
2022/04/13 03:06:22;;;;;;;33.00;16.03;;;;;;;4.62;69.43;95052.81;5036573;28;20198;-89
2022/04/13 03:08:47;;;;;;;31.47;17.53;;;;;;;4.43;69.97;95047.00;5056485;28;20168;-89
2022/04/13 03:11:13;;;;;;;42.90;17.97;;;;;;;4.34;69.92;95034.16;5055988;28;20210;-89
2022/04/13 03:13:38;;;;;;;41.63;17.77;;;;;;;4.35;69.95;95038.41;5036985;28;20179;-90
2022/04/13 03:16:04;;;;;;;29.20;16.17;;;;;;;4.44;69.97;95059.06;5037389;28;20175;-88
2022/04/13 03:18:30;;;;;;;28.40;15.83;;;;;;;4.31;70.12;95029.31;5037412;28;20277;-88
2022/04/13 03:20:56;;;;;;;29.77;14.97;;;;;;;4.53;69.94;95068.47;5037831;28;20155;-89
2022/04/13 03:23:21;;;;;;;33.03;12.57;;;;;;;4.25;70.16;95043.00;5054859;28;20547;-91
2022/04/13 03:25:48;;;;;;;24.10;9.87;;;;;;;3.91;69.95;94989.38;5036513;28;20167;-90
2022/04/13 03:28:14;;;;;;;20.47;9.93;;;;;;;3.79;70.28;94977.69;5036661;28;20175;-92
2022/04/13 03:30:39;;;;;;;19.43;8.60;;;;;;;4.21;70.54;95058.16;5054686;28;20170;-89
2022/04/13 03:33:05;;;;;;;23.97;11.73;;;;;;;3.93;70.95;95021.25;5055100;28;20238;-89
2022/04/13 03:35:30;;;;;;;19.37;9.87;;;;;;;4.14;71.56;95060.63;5036809;28;20555;-89
2022/04/13 03:37:55;;;;;;;20.43;9.43;;;;;;;3.73;70.76;94999.16;5037327;28;20630;-91
2022/04/13 03:40:23;;;;;;;18.07;8.13;;;;;;;4.00;70.59;95043.06;5038084;28;20171;-92
2022/04/13 03:42:48;;;;;;;19.77;9.67;;;;;;;4.51;70.62;95125.16;5038338;28;20189;-91
2022/04/13 03:45:14;;;;;;;19.53;8.53;;;;;;;4.26;70.25;95087.13;5038042;28;20175;-93
2022/04/13 03:47:42;;;;;;;13.87;7.67;;;;;;;4.57;70.71;95128.09;5037505;28;20248;-87
2022/04/13 03:50:09;;;;;;;22.10;8.20;;;;;;;4.17;69.99;95070.69;5037239;28;20159;-90
2022/04/13 03:52:35;;;;;;;18.63;10.00;;;;;;;4.53;70.04;95127.63;5038138;28;20644;-92
2022/04/13 03:55:04;;;;;;;22.63;9.17;;;;;;;4.50;71.07;95127.94;5039759;28;20186;-91
2022/04/13 03:57:29;;;;;;;18.00;9.57;;;;;;;4.01;70.47;95034.25;5035365;28;20175;-89
2022/04/13 03:59:55;;;;;;;20.30;9.67;;;;;;;4.02;70.25;95038.50;5037542;28;20181;-91
2022/04/13 04:02:21;;;;;;;19.43;9.07;;;;;;;4.07;70.44;95038.81;5037674;28;20198;-89
2022/04/13 04:04:46;;;;;;;19.90;10.50;;;;;;;4.28;70.30;95073.94;5036478;28;20171;-89
2022/04/13 04:07:12;;;;;;;17.90;9.57;;;;;;;4.44;70.75;95111.19;5035925;28;20205;-89
2022/04/13 04:09:37;;;;;;;25.37;10.17;;;;;;;4.65;70.76;95154.97;5031313;28;20178;-89
2022/04/13 04:12:03;;;;;;;28.60;12.73;;;;;;;4.26;70.42;95083.69;5036153;28;20632;-90
2022/04/13 04:14:28;;;;;;;31.87;12.67;;;;;;;4.24;70.90;95075.25;5036205;28;20178;-89
2022/04/13 04:16:54;;;;;;;28.23;14.07;;;;;;;4.68;70.24;95120.72;5052689;28;20174;-89
2022/04/13 04:19:19;;;;;;;34.07;16.07;;;;;;;4.99;69.29;95094.69;5035509;28;20227;-89
2022/04/13 04:21:44;;;;;;;22.00;12.73;;;;;;;5.79;67.05;95129.13;5053412;28;20186;-86
2022/04/13 04:24:10;;;;;;;17.43;9.83;;;;;;;5.90;63.62;95089.53;5035212;28;20652;-88
2022/04/13 04:26:35;;;;;;;25.43;13.00;;;;;;;6.74;63.53;95150.38;5053678;28;20175;-88
2022/04/13 04:29:01;;;;;;;20.90;10.80;;;;;;;7.15;60.00;95135.81;5036177;28;20167;-87
2022/04/13 04:34:10;;;;;;;31.57;12.30;;;;;;;8.20;57.29;95132.66;5054667;28;20178;-86
2022/04/13 04:36:35;;;;;;;28.53;11.03;;;;;;;8.70;54.96;95132.47;5053612;28;20637;-87
2022/04/13 04:39:01;;;;;;;138.57;127.70;;;;;;;9.70;53.17;95199.44;5036037;28;20194;-87
2022/04/13 04:41:26;;;;;;;1999.90;999.90;;;;;;;9.79;51.22;95130.72;5053155;28;20178;-88
2022/04/13 04:43:52;;;;;;;1999.90;999.90;;;;;;;10.63;49.21;95132.03;5053461;28;20254;-86
2022/04/13 04:46:17;;;;;;;1999.90;999.90;;;;;;;11.42;47.07;95160.81;5053146;28;20198;-85
2022/04/13 04:48:43;;;;;;;1999.90;999.90;;;;;;;12.30;45.03;95180.28;5035396;28;20175;-87
2022/04/13 04:51:09;;;;;;;1999.90;999.90;;;;;;;13.10;42.62;95203.25;5036113;28;20553;-87
2022/04/13 04:53:35;;;;;;;1999.90;999.90;;;;;;;13.72;41.01;95180.25;5053973;28;20163;-86
2022/04/13 04:56:01;;;;;;;1999.90;999.90;;;;;;;14.44;39.88;95162.59;5035116;28;20563;-86
2022/04/13 04:58:27;;;;;;;1999.90;999.90;;;;;;;15.46;37.73;95222.28;5052913;28;20179;-86
2022/04/13 05:00:53;;;;;;;1999.90;999.90;;;;;;;16.16;35.88;95222.19;5034942;28;20178;-84
2022/04/13 05:03:19;;;;;;;1999.90;999.90;;;;;;;16.75;33.99;95229.91;5052953;28;20237;-85
2022/04/13 05:05:44;;;;;;;1999.90;999.90;;;;;;;16.86;32.80;95160.72;5052771;28;20183;-85
2022/04/13 05:08:10;;;;;;;1999.90;999.90;;;;;;;17.46;32.19;95196.47;5052502;28;20162;-85
2022/04/13 05:10:35;;;;;;;1999.90;999.90;;;;;;;17.64;31.14;95188.22;5051486;28;20177;-87
2022/04/13 05:13:02;;;;;;;1999.90;999.90;;;;;;;18.58;30.26;95239.47;5052309;28;20242;-86
2022/04/13 05:15:28;;;;;;;332.40;308.67;;;;;;;18.12;30.08;95179.47;5052169;28;21015;-86
2022/04/13 05:17:54;;;;;;;532.70;499.40;;;;;;;19.20;29.71;95239.75;5050281;28;20221;-85
2022/04/13 05:20:19;;;;;;;186.77;174.65;;;;;;;19.62;28.90;95236.34;5051680;28;20706;-85
2022/04/13 05:22:45;;;;;;;14.50;8.18;;;;;;;19.37;28.83;95228.16;5051836;28;20543;-85
2022/04/13 05:25:15;;;;;;;13.23;7.18;;;;;;;18.44;29.80;95209.66;5052112;28;20652;-86
2022/04/13 05:27:42;;;;;;;10.50;5.50;;;;;;;18.01;29.98;95191.88;5052356;28;20175;-86
2022/04/13 05:30:08;;;;;;;15.77;5.50;;;;;;;19.11;29.72;95224.47;5034775;28;20183;-85
2022/04/13 05:32:47;;;;;;;12.15;5.35;;;;;;;20.50;27.30;95233.81;5034729;28;20168;-86
2022/04/13 05:35:12;;;;;;;7.95;4.70;;;;;;;21.65;26.59;95243.06;5034561;28;20171;-86
2022/04/13 05:37:37;;;;;;;14.50;6.78;;;;;;;21.65;25.31;95181.41;5034276;28;20175;-86
2022/04/13 05:40:03;;;;;;;8.70;4.75;;;;;;;22.30;24.11;95189.53;5052441;28;20166;-84
2022/04/13 05:42:31;;;;;;;18.58;16.98;;;;;;;22.27;23.70;95206.19;5051831;28;20650;-84
2022/04/13 05:44:57;;;;;;;714.83;671.45;;;;;;;23.24;23.63;95234.88;5034387;28;20304;-84
2022/04/13 05:47:22;;;;;;;1640.65;877.30;;;;;;;24.16;22.92;95205.22;5052594;28;20253;-85
2022/04/13 05:49:47;;;;;;;1999.90;999.90;;;;;;;24.94;22.62;95204.78;5053033;28;20249;-84
2022/04/13 05:52:13;;;;;;;1999.90;999.90;;;;;;;25.72;20.70;95238.31;5034404;28;20171;-85
2022/04/13 05:54:39;;;;;;;1999.90;999.90;;;;;;;25.81;20.38;95172.59;5034769;28;20178;-84
2022/04/13 05:57:04;;;;;;;1999.90;999.90;;;;;;;26.72;19.79;95210.47;5052823;28;20178;-84
2022/04/13 05:59:30;;;;;;;1999.90;999.90;;;;;;;26.86;19.87;95215.84;5052640;28;20187;-85
2022/04/13 06:01:55;;;;;;;1999.90;999.90;;;;;;;26.60;20.04;95180.47;5034429;28;20225;-86
2022/04/13 06:04:21;;;;;;;1999.90;999.90;;;;;;;27.56;19.50;95224.22;5034632;28;20171;-85
2022/04/13 06:06:46;;;;;;;1999.90;999.90;;;;;;;27.87;19.17;95188.25;5052787;28;20166;-87
2022/04/13 06:09:12;;;;;;;1999.90;999.90;;;;;;;28.09;18.10;95183.59;5037968;28;20168;-85
2022/04/13 06:11:37;;;;;;;1999.90;999.90;;;;;;;28.04;17.99;95232.44;5034260;28;20535;-85
2022/04/13 06:14:03;;;;;;;1999.90;999.90;;;;;;;27.12;19.37;95165.50;5029678;28;20640;-85
2022/04/13 06:16:28;;;;;;;1999.90;999.90;;;;;;;26.99;19.52;95233.94;5032603;28;20688;-88
2022/04/13 06:18:53;;;;;;;1999.90;999.90;;;;;;;25.84;19.30;95174.72;5051373;28;20314;-87
2022/04/13 06:21:19;;;;;;;1999.90;999.90;;;;;;;25.18;20.75;95143.47;5054350;28;20702;-87
2022/04/13 06:23:44;;;;;;;1999.90;999.90;;;;;;;25.93;19.86;95240.38;5037824;28;20178;-85
2022/04/13 06:26:10;;;;;;;1999.90;999.90;;;;;;;25.75;20.40;95235.84;5055611;28;20258;-86
2022/04/13 06:28:35;;;;;;;1999.90;999.90;;;;;;;24.87;22.38;95193.53;5055638;28;20171;-85
2022/04/13 06:31:00;;;;;;;1999.90;999.90;;;;;;;24.63;21.21;95182.84;5055426;28;20252;-88
2022/04/13 06:33:26;;;;;;;1999.90;999.90;;;;;;;23.45;22.85;95237.38;5054777;28;20189;-87
2022/04/13 06:35:51;;;;;;;1999.90;999.90;;;;;;;22.67;23.68;95214.00;5036501;28;20190;-85
2022/04/13 06:38:17;;;;;;;1999.90;999.90;;;;;;;22.24;23.81;95191.44;5054294;28;20252;-91
2022/04/13 06:40:42;;;;;;;1999.90;999.90;;;;;;;22.24;24.85;95206.72;5055471;28;20210;-95
2022/04/13 06:43:08;;;;;;;1999.90;999.90;;;;;;;22.14;24.19;95203.00;5036099;28;20179;-89
2022/04/13 06:45:35;;;;;;;1999.90;999.90;;;;;;;21.55;25.36;95186.00;5055680;28;20256;-88
2022/04/13 06:48:00;;;;;;;1999.90;999.90;;;;;;;21.54;26.07;95160.28;5035920;28;20722;-84
2022/04/13 06:50:26;;;;;;;1999.90;999.90;;;;;;;21.48;24.74;95159.47;5055182;28;20163;-85
2022/04/13 06:52:51;;;;;;;1999.90;999.90;;;;;;;20.96;25.68;95141.84;5055446;28;20170;-88
2022/04/13 06:55:16;;;;;;;1999.90;999.90;;;;;;;20.92;25.26;95162.22;5055504;28;20195;-90
2022/04/13 06:57:42;;;;;;;1999.90;999.90;;;;;;;21.25;25.72;95233.19;5038326;28;20675;-88
2022/04/13 07:00:10;;;;;;;1999.90;999.90;;;;;;;19.80;26.21;95118.38;5038328;28;20253;-86
2022/04/13 07:02:36;;;;;;;1999.90;999.90;;;;;;;20.00;26.64;95179.09;5055600;28;20159;-91
2022/04/13 07:05:03;;;;;;;1999.90;999.90;;;;;;;20.16;27.10;95234.22;5037990;28;20171;-87
2022/04/13 07:07:28;;;;;;;1999.90;999.90;;;;;;;18.89;27.25;95159.69;5035129;28;20883;-94
2022/04/13 07:09:54;;;;;;;1999.90;999.90;;;;;;;18.25;29.41;95184.41;5037785;28;20175;-93
2022/04/13 07:12:19;;;;;;;4.85;3.00;;;;;;;18.14;31.38;95141.91;5037851;28;20187;-90
2022/04/13 07:14:45;;;;;;;17.75;7.97;;;;;;;18.85;30.12;95200.22;5037563;28;20203;-93
2022/04/13 07:17:10;;;;;;;19.05;10.15;;;;;;;19.11;29.46;95181.78;5018181;28;20167;-89
2022/04/13 07:19:36;;;;;;;10.50;6.97;;;;;;;19.62;29.47;95233.69;5036246;28;20219;-92
2022/04/13 07:22:02;;;;;;;9.63;7.28;;;;;;;19.38;28.98;95182.47;5036050;28;20185;-89
2022/04/13 07:24:27;;;;;;;11.77;8.48;;;;;;;19.18;28.07;95151.13;5048972;28;20254;-92
2022/04/13 07:26:53;;;;;;;21.70;8.02;;;;;;;19.16;28.62;95147.91;5036951;28;20171;-90
2022/04/13 07:29:19;;;;;;;15.05;7.25;;;;;;;19.83;28.12;95226.56;5036070;28;20180;-88
2022/04/13 07:31:44;;;;;;;21.80;7.10;;;;;;;19.86;29.04;95162.75;5053502;28;20182;-85
2022/04/13 07:34:10;;;;;;;9.90;5.68;;;;;;;20.42;26.79;95237.00;5054123;28;20175;-85
2022/04/13 07:36:35;;;;;;;15.15;6.32;;;;;;;20.37;26.79;95234.34;5054013;28;20578;-79
2022/04/13 07:39:02;;;;;;;14.40;5.95;;;;;;;20.33;27.26;95240.16;5036430;28;20193;-82
2022/04/13 07:41:28;;;;;;;11.85;6.95;;;;;;;20.07;26.67;95211.72;5053607;28;20162;-85
2022/04/13 07:43:55;;;;;;;11.13;6.03;;;;;;;19.92;27.64;95184.94;5053718;28;20175;-87
2022/04/13 07:46:21;;;;;;;15.98;6.13;;;;;;;20.24;27.21;95190.13;5054172;28;20636;-82
2022/04/13 07:48:47;;;;;;;12.43;7.00;;;;;;;20.52;26.36;95204.94;5053504;28;20171;-85
2022/04/13 07:51:13;;;;;;;11.88;7.40;;;;;;;20.79;26.05;95239.53;5053730;28;20171;-84
2022/04/13 07:53:38;;;;;;;12.75;5.65;;;;;;;20.77;25.98;95226.41;5053554;28;20186;-84
2022/04/13 07:56:04;;;;;;;11.82;6.72;;;;;;;20.64;27.17;95237.63;5036123;28;20277;-84
2022/04/13 07:58:29;;;;;;;14.43;7.40;;;;;;;20.34;28.34;95166.13;5053343;28;20626;-85
2022/04/13 08:00:55;;;;;;;10.15;5.40;;;;;;;20.70;27.27;95181.19;5034902;28;20206;-83
2022/04/13 08:03:20;;;;;;;9.52;6.32;;;;;;;20.57;26.55;95183.56;5045783;28;20201;-85
2022/04/13 08:05:45;;;;;;;12.48;6.30;;;;;;;20.38;25.44;95158.38;5053560;28;20179;-85
2022/04/13 08:08:11;;;;;;;14.18;7.35;;;;;;;20.75;27.10;95233.91;5053374;28;20251;-84
2022/04/13 08:10:36;;;;;;;9.13;5.85;;;;;;;20.37;25.44;95157.59;5053570;28;20175;-84
2022/04/13 08:13:02;;;;;;;11.73;6.45;;;;;;;20.77;26.61;95199.66;5036100;28;20655;-85
2022/04/13 08:15:27;;;;;;;11.43;5.97;;;;;;;20.95;25.91;95214.38;5036069;28;20175;-85
2022/04/13 08:17:52;;;;;;;12.13;6.10;;;;;;;20.50;26.07;95157.06;5053547;28;20179;-85
2022/04/13 08:20:18;;;;;;;8.95;5.75;;;;;;;21.23;25.14;95238.00;5053306;28;20700;-84
2022/04/13 08:22:46;;;;;;;744.08;699.55;;;;;;;20.88;25.07;95193.25;5035803;28;20190;-84
2022/04/13 08:25:12;;;;;;;1108.22;999.90;;;;;;;21.37;24.68;95233.69;5053666;28;20220;-86
2022/04/13 08:27:38;;;;;;;1362.65;999.90;;;;;;;20.97;26.38;95159.53;5053076;28;20179;-86
2022/04/13 08:30:04;;;;;;;1205.32;999.90;;;;;;;20.98;23.86;95193.25;5053115;28;20170;-85
2022/04/13 08:32:29;;;;;;;1999.90;999.90;;;;;;;20.92;25.88;95237.16;5050065;28;20680;-86
2022/04/13 08:34:55;;;;;;;1830.80;999.90;;;;;;;20.59;25.80;95200.94;5035559;28;20181;-85
2022/04/13 08:37:21;;;;;;;1999.90;999.90;;;;;;;20.50;23.50;95207.88;5035088;28;20225;-85
2022/04/13 08:39:48;;;;;;;1999.90;999.90;;;;;;;20.61;22.71;95225.56;5052831;28;20187;-84
2022/04/13 08:42:14;;;;;;;1999.90;999.90;;;;;;;20.28;23.83;95226.78;5045680;28;20201;-84
2022/04/13 08:44:52;;;;;;;1999.90;999.90;;;;;;;20.37;25.16;95224.44;5053918;28;20159;-86
2022/04/13 08:47:20;;;;;;;1999.90;999.90;;;;;;;19.69;23.16;95228.13;5053129;28;20671;-86
2022/04/13 08:49:49;;;;;;;1999.90;999.90;;;;;;;19.74;24.43;95218.25;5032136;28;20174;-84
2022/04/13 08:52:17;;;;;;;1999.90;999.90;;;;;;;19.05;22.93;95129.41;5052514;28;20190;-84
2022/04/13 08:55:01;;;;;;;1999.90;999.90;;;;;;;19.20;23.80;95218.38;5052602;28;20179;-92
2022/04/13 08:57:28;;;;;;;1999.90;999.90;;;;;;;18.85;26.55;95216.22;5051760;28;20647;-85
2022/04/13 09:00:02;;;;;;;1999.90;999.90;;;;;;;18.77;25.19;95214.03;5052297;28;20199;-86
2022/04/13 09:02:49;;;;;;;1999.90;999.90;;;;;;;18.81;23.96;95220.47;5051832;28;20559;-87
2022/04/13 09:05:27;;;;;;;1999.90;999.90;;;;;;;19.12;25.46;95212.72;5034746;28;20171;-82
2022/04/13 09:08:21;;;;;;;1999.90;999.90;;;;;;;19.06;24.87;95209.22;5052289;28;20170;-81
2022/04/13 09:10:48;;;;;;;1999.90;999.90;;;;;;;18.70;24.20;95192.09;5050348;28;20240;-83
2022/04/13 09:13:16;;;;;;;1999.90;999.90;;;;;;;18.71;23.39;95204.38;5051390;28;20249;-87
2022/04/13 09:15:43;;;;;;;1999.90;999.90;;;;;;;18.38;24.81;95141.38;5035134;28;20182;-84
2022/04/13 09:18:11;;;;;;;1999.90;999.90;;;;;;;18.67;26.53;95149.94;5034895;28;20199;-84
2022/04/13 09:20:38;;;;;;;1999.90;999.90;;;;;;;18.08;23.73;95189.00;5051802;28;20226;-84
2022/04/13 09:23:04;;;;;;;1999.90;999.90;;;;;;;18.00;25.81;95168.13;5052101;28;20175;-85
2022/04/13 09:25:31;;;;;;;1999.90;999.90;;;;;;;18.07;24.38;95144.78;5034096;28;20171;-85
2022/04/13 09:27:58;;;;;;;1999.90;999.90;;;;;;;18.60;25.34;95191.19;5051886;28;20197;-85
2022/04/13 09:30:24;;;;;;;1999.90;999.90;;;;;;;17.97;26.09;95144.66;5052768;28;20270;-86
2022/04/13 09:32:50;;;;;;;1999.90;999.90;;;;;;;18.04;25.71;95167.41;5046300;28;20656;-86
2022/04/13 09:35:17;;;;;;;1999.90;999.90;;;;;;;18.45;28.05;95176.63;5052405;28;20260;-86
2022/04/13 09:37:43;;;;;;;1530.82;999.90;;;;;;;18.74;26.81;95129.19;5034415;28;20174;-86
2022/04/13 09:40:09;;;;;;;1303.97;999.90;;;;;;;19.11;24.24;95141.75;5034516;28;20164;-88
2022/04/13 09:42:36;;;;;;;1999.90;999.90;;;;;;;19.40;23.80;95164.34;5030801;28;20190;-85
2022/04/13 09:45:02;;;;;;;1999.90;999.90;;;;;;;18.97;24.66;95085.31;5052229;28;20569;-87
2022/04/13 09:47:33;;;;;;;1999.90;999.90;;;;;;;19.61;24.25;95184.00;5033708;28;20612;-88
2022/04/13 09:49:59;;;;;;;1999.90;999.90;;;;;;;19.34;25.93;95133.34;5044533;28;20171;-87
2022/04/13 09:52:36;;;;;;;1999.90;999.90;;;;;;;19.23;25.01;95171.69;5052287;28;20167;-86
2022/04/13 09:55:04;;;;;;;1999.90;999.90;;;;;;;19.00;24.94;95167.53;5052206;28;20186;-86
2022/04/13 09:57:31;;;;;;;1999.90;999.90;;;;;;;18.67;27.31;95111.78;5052110;28;20185;-85
2022/04/13 09:59:58;;;;;;;1999.90;999.90;;;;;;;18.63;26.20;95108.81;5051309;28;20698;-84
2022/04/13 10:02:40;;;;;;;1165.10;457.63;;;;;;;18.74;26.53;95099.03;5051839;28;20230;-87
2022/04/13 10:05:15;;;;;;;1999.90;999.90;;;;;;;19.21;25.64;95166.59;5024239;28;20179;-84
2022/04/13 10:07:41;;;;;;;1999.90;999.90;;;;;;;18.97;26.13;95124.53;5051648;28;20170;-87
2022/04/13 10:10:23;;;;;;;1914.53;999.90;;;;;;;19.10;28.96;95156.94;5051918;28;20546;-86
2022/04/13 10:12:49;;;;;;;405.42;385.95;;;;;;;19.13;26.60;95148.41;5031202;28;20259;-87
2022/04/13 10:15:15;;;;;;;872.35;817.00;;;;;;;19.14;26.22;95155.34;5014934;28;20172;-87
2022/04/13 10:17:41;;;;;;;897.10;839.67;;;;;;;18.64;27.12;95097.09;5032487;28;20171;-87
2022/04/13 10:20:07;;;;;;;1033.72;962.67;;;;;;;18.90;25.55;95151.44;5031257;28;20301;-87
2022/04/13 10:22:32;;;;;;;1881.60;999.90;;;;;;;18.27;27.40;95094.34;5013441;28;20167;-87
2022/04/13 10:25:26;;;;;;;777.45;726.78;;;;;;;18.29;30.68;95121.56;5013622;28;20640;-86
2022/04/13 10:27:57;;;;;;;3.50;2.97;;;;;;;17.88;25.29;95108.88;5012932;28;20168;-86
2022/04/13 10:30:52;;;;;;;1260.15;999.90;;;;;;;17.92;26.20;95142.75;5030934;28;20203;-88
2022/04/13 10:33:18;;;;;;;1385.78;999.90;;;;;;;17.10;28.34;95078.06;5029831;28;20179;-87
2022/04/13 10:35:46;;;;;;;1043.53;968.58;;;;;;;17.00;30.37;95070.75;5032559;28;20750;-87
2022/04/13 10:38:12;;;;;;;4.90;4.15;;;;;;;16.80;28.87;95047.31;5031372;28;20684;-87
2022/04/13 10:40:43;;;;;;;3.70;2.85;;;;;;;17.30;29.41;95148.31;5049959;28;20179;-86
2022/04/13 10:43:11;;;;;;;3.65;2.78;;;;;;;16.97;29.51;95088.00;5048527;28;20167;-87
2022/04/13 10:45:45;;;;;;;3.85;3.00;;;;;;;16.96;30.27;95075.75;5031870;28;20268;-87
2022/04/13 10:48:11;;;;;;;3.58;2.60;;;;;;;16.94;27.32;95085.84;5049618;28;20203;-87
2022/04/13 10:50:45;;;;;;;3.15;2.10;;;;;;;17.29;29.59;95132.63;5031872;28;20172;-87
2022/04/13 10:53:17;;;;;;;4.82;2.55;;;;;;;17.33;30.00;95131.88;5050151;28;20186;-87
2022/04/13 10:55:44;;;;;;;4.70;2.97;;;;;;;17.46;30.95;95127.25;5032055;28;20656;-87
2022/04/13 10:58:12;;;;;;;2.83;2.15;;;;;;;17.60;30.13;95115.97;5032057;28;20277;-86
2022/04/13 11:00:44;;;;;;;3.10;1.90;;;;;;;17.71;31.24;95119.59;5042594;28;20233;-86
2022/04/13 11:03:11;;;;;;;3.30;2.53;;;;;;;17.50;28.78;95075.91;5033307;28;20241;-87
2022/04/13 11:05:40;;;;;;;4.38;1.92;;;;;;;17.64;30.08;95082.50;5053132;28;20623;-86
2022/04/13 11:08:19;;;;;;;2.95;2.30;;;;;;;17.99;28.91;95123.88;5055437;28;20241;-87
2022/04/13 11:10:51;;;;;;;3.78;2.30;;;;;;;17.70;27.54;95076.19;5037616;28;20179;-87
2022/04/13 11:13:19;;;;;;;4.50;2.55;;;;;;;17.88;26.12;95115.00;5035628;28;20585;-87
2022/04/13 11:15:46;;;;;;;5.32;2.13;;;;;;;17.28;26.56;95036.00;5054195;28;20186;-85